Superior, WI

7:50 AM CDT on April 19, 2015 (GMT -0500)
Central Park | | Change Station
CLOSE
Current Station
Personal Weather Station
Location: Superior, WI
Elevation: 623 ft
Nearby Weather Stations

Elev 623 ft 46.72 °N, 92.07 °W | Updated 8 seconds ago

Rain
Rain
37.4 °F
Feels Like 31 °F
N
8.3
Wind Variable Wind from ENE
Gusts 16.8 mph

Today
High -- | Low -- °F
--% Chance of Precip.
Yesterday
High -- | Low -- °F
Precip. -- in
6:14 AM 8:01 PM
New Moon, 1% visible
Pressure 29.81 in
Visibility 4.0 miles
Clouds Overcast 500 ft
Windchill 31 °F
Dew Point 37 °F
Humidity 99%
Rainfall 0.33 in
Snow Depth Not available.
UV 0 out of 12
Pollen 1.00 out of 12
Air Quality Not available.
Flu Activity Local Activity
METAR KSUW 191235Z AUTO 06010KT 4SM RA OVC005 03/02 A2981 RMK AO2 P0004 T00250021

More Conditions Fewer Conditions

Pressure 29.81 in
Visibility 4.0 miles
Clouds Overcast 500 ft
Windchill 31 °F
Dew Point 37 °F
Humidity 99%
Rainfall 0.33 in
Snow Depth Not available.
UV 0 out of 12
Pollen 1.00 out of 12
Air Quality Not available.
Flu Activity Local Activity
METAR KSUW 191235Z AUTO 06010KT 4SM RA OVC005 03/02 A2981 RMK AO2 P0004 T00250021

More Conditions Fewer Conditions

10-Day Weather Forecast

Almanac

Astronomy

Apr. 19, 2015 Rise Set
Actual Time
Civil Twilight
Nautical Twilight
Astronomical Twilight
Moon
Length of Visible Light
Length of Day
Tomorrow will be .
, % of the Moon is Illuminated

Today's Extremes

State Highs State Lows

Community

WunderPhotos

Upload Photos

1,814,775 photos uploaded!

WunderBlogs® & News

Nearby

Air Quality

  Air Quality AQ Index Pollutant
Not available.

Snow Depth

Station Depth Elevation

Earthquake Activity

City Distance Mag. Time & Date
Minimum magnitude displayed is 2.5.

Coastal Water Temperatures

Place Temperature

Stations

Nearby Weather Stations

Station Location Temp. Windchill Dew Point Humidity Wind Precip. Elev Updated Type